Time;durP1;ratioP1;P1;durP2;ratioP2;P2;SDS_P1;SDS_P2;PMS_P1;PMS_P2;Temp;Humidity;BMP_temperature;BMP_pressure;BME280_temperature;BME280_humidity;BME280_pressure;Samples;Min_cycle;Max_cycle;Signal;HPM_P1;HPM_P2
2023/03/04 00:01:58;;;;;;;11.90;1.20;;;5.50;99.90;;;;;;5053355;28;20071;-61
2023/03/04 00:04:23;;;;;;;11.13;1.27;;;5.60;99.90;;;;;;5054033;28;20064;-61
2023/03/04 00:06:49;;;;;;;14.00;1.50;;;5.60;99.90;;;;;;5052453;28;20067;-60
2023/03/04 00:09:15;;;;;;;2.57;1.00;;;5.50;99.90;;;;;;5052891;28;20070;-71
2023/03/04 00:11:40;;;;;;;5.90;1.30;;;5.50;99.90;;;;;;5043878;28;20037;-61
2023/03/04 00:14:06;;;;;;;4.87;1.43;;;5.50;99.90;;;;;;5051028;28;20033;-60
2023/03/04 00:16:32;;;;;;;7.13;1.20;;;5.50;99.90;;;;;;5047087;28;20403;-60
2023/03/04 00:18:58;;;;;;;6.33;1.80;;;5.50;99.90;;;;;;5056153;28;20029;-60
2023/03/04 00:21:23;;;;;;;1.77;0.93;;;5.50;99.90;;;;;;5046936;28;20037;-60
2023/03/04 00:23:49;;;;;;;8.93;1.70;;;5.50;99.90;;;;;;5052020;28;20328;-60
2023/03/04 00:26:16;;;;;;;5.63;0.95;;;5.50;99.90;;;;;;5052215;28;20052;-73
2023/03/04 00:28:42;;;;;;;10.65;1.67;;;5.50;99.90;;;;;;5049452;28;20332;-60
2023/03/04 00:31:08;;;;;;;7.53;1.20;;;5.50;99.90;;;;;;5052997;28;20124;-61
2023/03/04 00:33:34;;;;;;;19.95;1.48;;;5.40;99.90;;;;;;5047481;28;20083;-61
2023/03/04 00:36:00;;;;;;;8.57;1.10;;;5.40;99.90;;;;;;5049604;28;20029;-60
2023/03/04 00:38:26;;;;;;;8.77;2.20;;;5.40;99.90;;;;;;5034476;28;20285;-60
2023/03/04 00:40:52;;;;;;;18.35;1.70;;;5.50;99.90;;;;;;5056318;28;20321;-60
2023/03/04 00:43:18;;;;;;;6.18;1.15;;;5.50;99.90;;;;;;5055201;28;20025;-61
2023/03/04 00:45:44;;;;;;;17.97;2.60;;;5.50;99.90;;;;;;5052806;28;20404;-61
2023/03/04 00:48:10;;;;;;;9.77;1.77;;;5.50;99.90;;;;;;5054170;28;20323;-60
2023/03/04 00:50:36;;;;;;;9.00;1.23;;;5.50;99.90;;;;;;5036472;28;20112;-60
2023/03/04 00:53:02;;;;;;;7.10;1.97;;;5.50;99.90;;;;;;5051206;28;20362;-60
2023/03/04 00:55:28;;;;;;;2.10;0.73;;;5.50;99.90;;;;;;5053314;28;20123;-60
2023/03/04 00:57:53;;;;;;;8.73;1.70;;;5.50;99.90;;;;;;5051871;28;20100;-60
2023/03/04 01:00:19;;;;;;;12.57;2.73;;;5.50;99.90;;;;;;5048136;28;20116;-60
2023/03/04 01:02:45;;;;;;;8.73;1.63;;;5.50;99.90;;;;;;5053147;28;20025;-61
2023/03/04 01:05:11;;;;;;;5.63;1.10;;;5.50;99.90;;;;;;5060744;28;20040;-71
2023/03/04 01:07:37;;;;;;;15.83;2.43;;;5.40;99.90;;;;;;5056091;28;20516;-60
2023/03/04 01:10:05;;;;;;;6.13;0.90;;;5.40;99.90;;;;;;5044640;28;20029;-60
2023/03/04 01:12:31;;;;;;;3.60;0.65;;;5.40;99.90;;;;;;5049338;28;20037;-60
2023/03/04 01:14:56;;;;;;;1.33;0.90;;;5.40;99.90;;;;;;5058195;28;20036;-60
2023/03/04 01:17:22;;;;;;;10.20;1.63;;;5.50;99.90;;;;;;5055470;28;20033;-70
2023/03/04 01:19:48;;;;;;;4.40;0.60;;;5.50;99.90;;;;;;5056182;28;20025;-60
2023/03/04 01:22:15;;;;;;;12.30;1.43;;;5.50;99.90;;;;;;5056696;28;20026;-73
2023/03/04 01:24:41;;;;;;;4.38;0.80;;;5.50;99.90;;;;;;5057633;28;20032;-60
2023/03/04 01:27:07;;;;;;;5.93;1.40;;;5.50;99.90;;;;;;5050795;28;20051;-64
2023/03/04 01:29:33;;;;;;;16.43;1.47;;;5.50;99.90;;;;;;5063422;28;20037;-61
2023/03/04 01:31:58;;;;;;;14.63;1.93;;;5.40;99.90;;;;;;5054063;28;20090;-61
2023/03/04 01:34:24;;;;;;;4.83;0.93;;;5.40;99.90;;;;;;5051756;28;20034;-60
2023/03/04 01:36:49;;;;;;;11.83;1.10;;;5.40;99.90;;;;;;5038645;28;20032;-61
2023/03/04 01:39:15;;;;;;;13.57;1.43;;;5.40;99.90;;;;;;5055859;28;20064;-72
2023/03/04 01:41:41;;;;;;;11.10;1.43;;;5.40;99.90;;;;;;5056733;28;20017;-61
2023/03/04 01:44:09;;;;;;;5.87;1.87;;;5.40;99.90;;;;;;5047237;28;20029;-66
2023/03/04 01:46:36;;;;;;;13.48;2.50;;;5.40;99.90;;;;;;5056512;28;20079;-61
2023/03/04 01:49:02;;;;;;;8.35;1.58;;;5.40;99.90;;;;;;5055810;28;20033;-61
2023/03/04 01:51:28;;;;;;;8.75;1.35;;;5.40;99.90;;;;;;5051116;28;20082;-62
2023/03/04 01:53:55;;;;;;;4.20;1.23;;;5.30;99.90;;;;;;5055875;28;20362;-61
2023/03/04 01:56:36;;;;;;;7.50;1.23;;;5.30;99.90;;;;;;5038672;28;20075;-61
2023/03/04 01:59:11;;;;;;;5.10;0.80;;;5.30;99.90;;;;;;5052865;28;20047;-61
2023/03/04 02:01:38;;;;;;;16.42;1.88;;;5.30;99.90;;;;;;5049997;28;20029;-61
2023/03/04 02:04:04;;;;;;;;;;;5.30;99.90;;;;;;5050255;28;20112;-61
2023/03/04 02:06:29;;;;;;;3.70;1.08;;;5.20;99.90;;;;;;5030194;28;20479;-61
2023/03/04 02:08:55;;;;;;;3.07;2.20;;;5.20;99.90;;;;;;5053795;28;20087;-71
2023/03/04 02:11:21;;;;;;;4.80;1.13;;;5.30;99.90;;;;;;5055803;28;20029;-61
2023/03/04 02:13:47;;;;;;;9.80;1.53;;;5.30;99.90;;;;;;5053951;28;20041;-61
2023/03/04 02:16:12;;;;;;;2.03;1.43;;;5.40;99.90;;;;;;5055096;28;20044;-72
2023/03/04 02:18:38;;;;;;;9.77;1.93;;;5.40;99.90;;;;;;5048721;28;20035;-61
2023/03/04 02:21:04;;;;;;;2.63;0.97;;;5.40;99.90;;;;;;5055731;28;20150;-62
2023/03/04 02:23:42;;;;;;;8.07;1.40;;;5.40;99.90;;;;;;5054923;28;20029;-60
2023/03/04 02:26:20;;;;;;;9.45;1.08;;;5.30;99.90;;;;;;5055544;28;20276;-61
2023/03/04 02:28:48;;;;;;;3.58;1.60;;;5.30;99.90;;;;;;5054733;28;20045;-60
2023/03/04 02:31:35;;;;;;;5.88;1.27;;;5.40;99.90;;;;;;5053070;28;20467;-71
2023/03/04 02:34:04;;;;;;;9.23;1.35;;;5.40;99.90;;;;;;5050567;28;20078;-60
2023/03/04 02:36:32;;;;;;;10.88;1.23;;;5.30;99.90;;;;;;5058510;28;20036;-61
2023/03/04 02:39:05;;;;;;;13.98;1.67;;;5.30;99.90;;;;;;5047003;28;20034;-61
2023/03/04 02:41:32;;;;;;;4.38;0.88;;;5.20;99.90;;;;;;5051988;28;20029;-60
2023/03/04 02:43:57;;;;;;;4.60;0.55;;;5.20;99.90;;;;;;5045073;28;20040;-60
2023/03/04 02:46:23;;;;;;;7.93;1.43;;;5.30;99.90;;;;;;5050474;28;20037;-72
2023/03/04 02:48:50;;;;;;;13.38;1.45;;;5.30;99.90;;;;;;5050345;28;20127;-61
2023/03/04 02:51:16;;;;;;;21.48;2.05;;;5.30;99.90;;;;;;5047904;28;20037;-72
2023/03/04 02:53:42;;;;;;;11.73;1.50;;;5.20;99.90;;;;;;5050171;28;20059;-61
2023/03/04 02:56:07;;;;;;;12.30;1.13;;;5.20;99.90;;;;;;5029076;28;20037;-60
2023/03/04 02:58:33;;;;;;;6.87;1.93;;;5.20;99.90;;;;;;5047429;28;20029;-60
2023/03/04 03:00:59;;;;;;;15.33;2.43;;;5.20;99.90;;;;;;5049173;28;20016;-61
2023/03/04 03:03:25;;;;;;;8.50;1.33;;;5.20;99.90;;;;;;5046208;28;20311;-71
2023/03/04 03:05:53;;;;;;;16.13;1.53;;;5.20;99.90;;;;;;5040340;28;20033;-60
2023/03/04 03:08:18;;;;;;;8.55;1.50;;;5.20;99.90;;;;;;5047902;28;20323;-61
2023/03/04 03:10:44;;;;;;;14.57;1.87;;;5.20;99.90;;;;;;5041878;28;20029;-60
2023/03/04 03:13:10;;;;;;;2.77;1.07;;;5.20;99.90;;;;;;5050007;28;20025;-61
2023/03/04 03:15:40;;;;;;;9.27;1.47;;;5.20;99.90;;;;;;5031382;28;20373;-60
2023/03/04 03:18:09;;;;;;;2.75;0.95;;;5.20;99.90;;;;;;5047861;28;20369;-60
2023/03/04 03:20:35;;;;;;;4.88;1.10;;;5.20;99.90;;;;;;5050747;28;20052;-61
2023/03/04 03:23:02;;;;;;;7.40;0.77;;;5.20;99.90;;;;;;5049490;28;20021;-60
2023/03/04 03:25:28;;;;;;;4.20;1.10;;;5.20;99.90;;;;;;5052120;28;20033;-60
2023/03/04 03:27:53;;;;;;;8.00;1.57;;;5.20;99.90;;;;;;5046358;28;20041;-71
2023/03/04 03:30:19;;;;;;;7.63;1.40;;;5.20;99.90;;;;;;5056893;28;20021;-61
2023/03/04 03:32:45;;;;;;;7.03;0.90;;;5.10;99.90;;;;;;5030472;28;21437;-60
2023/03/04 03:35:11;;;;;;;1.40;0.67;;;5.10;99.90;;;;;;5048967;28;20028;-64
2023/03/04 03:37:37;;;;;;;4.18;0.90;;;5.20;99.90;;;;;;5050858;28;20104;-66
2023/03/04 03:40:03;;;;;;;13.50;1.47;;;5.20;99.90;;;;;;5048247;28;20398;-60
2023/03/04 03:42:29;;;;;;;8.73;1.30;;;5.20;99.90;;;;;;5033292;28;20055;-60
2023/03/04 03:44:55;;;;;;;3.97;1.13;;;5.20;99.90;;;;;;5049094;28;20423;-60
2023/03/04 03:47:21;;;;;;;6.93;0.87;;;5.20;99.90;;;;;;5052127;28;20025;-61
2023/03/04 03:49:46;;;;;;;5.27;0.77;;;5.10;99.90;;;;;;5053658;28;20393;-60
2023/03/04 03:52:12;;;;;;;5.23;0.83;;;5.10;99.90;;;;;;5050937;28;21392;-71
2023/03/04 03:54:38;;;;;;;6.47;1.30;;;5.10;99.90;;;;;;5052022;28;20029;-61
2023/03/04 03:57:04;;;;;;;5.47;0.90;;;5.10;99.90;;;;;;5047128;28;20025;-61
2023/03/04 03:59:30;;;;;;;4.77;1.27;;;5.10;99.90;;;;;;5052087;28;20033;-61
2023/03/04 04:01:55;;;;;;;2.67;1.67;;;5.10;99.90;;;;;;5045416;28;20330;-61
2023/03/04 04:04:21;;;;;;;4.93;1.47;;;5.10;99.90;;;;;;5053745;28;20037;-61
2023/03/04 04:06:47;;;;;;;7.60;1.03;;;5.00;99.90;;;;;;5052320;28;20045;-61
2023/03/04 04:09:12;;;;;;;10.73;1.80;;;5.10;99.90;;;;;;5044413;28;20427;-71
2023/03/04 04:11:38;;;;;;;2.57;0.87;;;5.10;99.90;;;;;;5052962;28;20041;-61
2023/03/04 04:14:04;;;;;;;3.10;0.90;;;5.10;99.90;;;;;;5048136;28;20324;-61
2023/03/04 04:16:30;;;;;;;10.57;1.40;;;5.00;99.90;;;;;;5053230;28;20036;-61
2023/03/04 04:18:55;;;;;;;3.22;1.05;;;5.00;99.90;;;;;;5050088;28;20036;-61
2023/03/04 04:21:21;;;;;;;4.30;1.37;;;5.00;99.90;;;;;;5053817;28;20450;-61
2023/03/04 04:23:47;;;;;;;9.30;1.70;;;5.00;99.90;;;;;;5053300;28;20044;-61
2023/03/04 04:26:13;;;;;;;1.83;0.73;;;5.00;99.90;;;;;;5053849;28;20025;-71
2023/03/04 04:28:38;;;;;;;10.67;1.57;;;5.00;99.90;;;;;;5051601;28;20064;-61
2023/03/04 04:31:08;;;;;;;8.57;1.30;;;5.00;99.90;;;;;;5056336;28;20025;-60
2023/03/04 04:33:34;;;;;;;12.98;1.73;;;5.10;99.90;;;;;;5052821;28;20407;-61
2023/03/04 04:36:00;;;;;;;4.65;0.93;;;5.10;99.90;;;;;;5036009;28;20427;-60
2023/03/04 04:38:26;;;;;;;6.78;1.48;;;5.10;99.90;;;;;;5055859;28;20029;-61
2023/03/04 04:40:52;;;;;;;12.27;3.07;;;5.10;99.90;;;;;;5039597;28;20033;-61
2023/03/04 04:43:17;;;;;;;5.67;0.70;;;5.00;99.90;;;;;;5057615;28;20041;-61
2023/03/04 04:45:43;;;;;;;2.13;1.30;;;5.10;99.90;;;;;;5056755;28;20074;-60
2023/03/04 04:48:08;;;;;;;17.37;1.43;;;5.10;99.90;;;;;;5060186;28;20029;-61
2023/03/04 04:50:34;;;;;;;7.70;1.33;;;5.10;99.90;;;;;;5058719;28;20029;-60
2023/03/04 04:53:00;;;;;;;5.73;1.43;;;5.20;99.90;;;;;;5056989;28;20327;-60
2023/03/04 04:55:25;;;;;;;15.00;2.13;;;5.10;99.90;;;;;;5056951;28;20063;-72
2023/03/04 04:57:51;;;;;;;7.17;0.90;;;5.10;99.90;;;;;;5056714;28;20031;-60
2023/03/04 05:00:17;;;;;;;6.30;1.50;;;5.10;99.90;;;;;;5056015;28;20044;-64
2023/03/04 05:02:43;;;;;;;8.35;0.98;;;5.10;99.90;;;;;;5056758;28;20028;-60
2023/03/04 05:05:09;;;;;;;6.67;2.00;;;5.10;99.90;;;;;;5056783;28;20033;-60
2023/03/04 05:07:35;;;;;;;7.20;0.77;;;5.00;99.90;;;;;;5055915;28;20021;-60
2023/03/04 05:10:02;;;;;;;5.47;1.10;;;5.00;99.90;;;;;;5056411;28;20044;-60
2023/03/04 05:12:27;;;;;;;11.23;1.10;;;5.10;99.90;;;;;;5056143;28;20270;-60
2023/03/04 05:14:53;;;;;;;5.03;0.90;;;5.00;99.90;;;;;;5056557;28;20442;-60
2023/03/04 05:17:19;;;;;;;15.37;2.17;;;5.00;99.90;;;;;;5058646;28;20025;-61
2023/03/04 05:19:44;;;;;;;4.23;0.80;;;5.00;99.90;;;;;;5051606;28;20067;-61
2023/03/04 05:22:10;;;;;;;3.13;1.43;;;5.00;99.90;;;;;;5056440;28;20149;-61
2023/03/04 05:24:35;;;;;;;10.07;1.27;;;4.90;99.90;;;;;;5056357;28;20319;-61
2023/03/04 05:27:01;;;;;;;6.90;1.00;;;4.90;99.90;;;;;;5036426;28;20033;-61
2023/03/04 05:29:27;;;;;;;10.53;1.87;;;4.90;99.90;;;;;;5038495;28;20064;-65
2023/03/04 05:31:53;;;;;;;5.70;1.57;;;4.90;99.90;;;;;;5060364;28;20036;-61
2023/03/04 05:34:18;;;;;;;11.20;1.83;;;4.90;99.90;;;;;;5056592;28;20028;-62
2023/03/04 05:36:44;;;;;;;8.70;1.53;;;4.80;99.90;;;;;;5055896;28;20105;-60
2023/03/04 05:39:10;;;;;;;7.37;2.47;;;4.90;99.90;;;;;;5055812;28;20032;-61
2023/03/04 05:41:36;;;;;;;10.00;1.97;;;4.90;99.90;;;;;;5064718;28;20052;-61
2023/03/04 05:44:01;;;;;;;7.93;1.67;;;4.90;99.90;;;;;;5055987;28;20032;-60
2023/03/04 05:46:27;;;;;;;8.90;1.90;;;4.90;99.90;;;;;;5056301;28;20060;-61
2023/03/04 05:48:53;;;;;;;6.90;1.00;;;4.90;99.90;;;;;;5052993;28;20052;-61
2023/03/04 05:51:20;;;;;;;8.52;1.75;;;4.90;99.90;;;;;;5038048;28;20041;-61
2023/03/04 05:53:45;;;;;;;12.25;2.05;;;4.90;99.90;;;;;;5046090;28;20385;-61
2023/03/04 05:56:14;;;;;;;10.03;1.50;;;4.90;99.90;;;;;;5053550;28;20104;-68
2023/03/04 05:58:40;;;;;;;11.75;1.92;;;4.90;99.90;;;;;;5056131;28;20112;-61
2023/03/04 06:01:06;;;;;;;9.37;1.53;;;4.90;99.90;;;;;;5050478;28;20463;-60
2023/03/04 06:03:32;;;;;;;9.10;2.35;;;4.90;99.90;;;;;;5049213;28;20032;-60
2023/03/04 06:05:58;;;;;;;9.00;1.80;;;5.00;99.90;;;;;;5054821;28;20041;-61
2023/03/04 06:08:25;;;;;;;13.52;1.67;;;5.00;99.90;;;;;;5055351;28;20071;-61
2023/03/04 06:10:53;;;;;;;7.28;1.23;;;4.90;99.90;;;;;;5054972;28;20040;-60
2023/03/04 06:13:19;;;;;;;9.10;1.52;;;4.90;99.90;;;;;;5054197;28;20403;-61
2023/03/04 06:15:45;;;;;;;10.25;1.40;;;4.90;99.90;;;;;;5054797;28;20319;-61
2023/03/04 06:18:11;;;;;;;9.70;0.90;;;4.90;99.90;;;;;;5058960;28;20033;-66
2023/03/04 06:20:36;;;;;;;8.43;1.10;;;4.80;99.90;;;;;;5055855;28;20039;-61
2023/03/04 06:23:03;;;;;;;8.73;1.40;;;4.70;99.90;;;;;;5037744;28;20059;-61
2023/03/04 06:25:29;;;;;;;7.32;1.00;;;4.80;99.90;;;;;;5054862;28;20167;-61
2023/03/04 06:27:55;;;;;;;3.83;1.00;;;4.70;99.90;;;;;;5055541;28;20120;-60
2023/03/04 06:30:20;;;;;;;3.77;1.03;;;4.80;99.90;;;;;;5054359;28;20025;-60
2023/03/04 06:32:46;;;;;;;1.87;0.60;;;4.80;99.90;;;;;;5054094;28;20539;-60
2023/03/04 06:35:14;;;;;;;6.95;1.30;;;4.80;99.90;;;;;;5054018;28;20115;-71
2023/03/04 06:37:41;;;;;;;2.63;1.10;;;4.90;99.90;;;;;;5046366;28;20111;-60
2023/03/04 06:40:07;;;;;;;5.13;0.88;;;4.90;99.90;;;;;;5043982;28;20039;-60
2023/03/04 06:42:33;;;;;;;13.13;0.93;;;4.90;99.90;;;;;;5046339;28;20562;-60
2023/03/04 06:44:59;;;;;;;2.13;0.38;;;4.90;99.90;;;;;;5042839;28;20033;-60
2023/03/04 06:47:25;;;;;;;4.40;0.50;;;4.90;99.90;;;;;;5044861;28;20025;-71
2023/03/04 06:49:51;;;;;;;1.93;0.83;;;4.80;99.90;;;;;;5050840;28;20047;-61
2023/03/04 06:52:17;;;;;;;4.10;0.65;;;4.70;99.90;;;;;;5050130;28;20116;-67
2023/03/04 06:54:42;;;;;;;8.97;1.10;;;4.70;99.90;;;;;;5047235;28;20496;-61
2023/03/04 06:57:08;;;;;;;4.70;0.90;;;4.70;99.90;;;;;;5053180;28;20101;-61
2023/03/04 06:59:34;;;;;;;6.47;0.90;;;4.70;99.90;;;;;;5050617;28;20104;-61
2023/03/04 07:02:00;;;;;;;3.73;0.67;;;4.70;99.90;;;;;;5041138;28;20061;-61
2023/03/04 07:04:25;;;;;;;9.30;0.77;;;4.80;99.90;;;;;;5052753;28;20415;-61
2023/03/04 07:06:51;;;;;;;2.10;1.23;;;4.80;99.90;;;;;;5047746;28;20033;-61
2023/03/04 07:09:17;;;;;;;3.00;0.90;;;4.80;99.90;;;;;;5042078;28;20359;-71
2023/03/04 07:11:43;;;;;;;5.03;0.80;;;4.90;99.90;;;;;;5050791;28;20103;-61
2023/03/04 07:14:09;;;;;;;5.45;0.80;;;5.00;99.90;;;;;;5048092;28;20420;-61
2023/03/04 07:16:35;;;;;;;4.82;1.25;;;5.00;99.90;;;;;;5053161;28;20051;-61
2023/03/04 07:19:01;;;;;;;6.17;1.03;;;5.10;99.90;;;;;;5051230;28;20400;-61
2023/03/04 07:21:27;;;;;;;6.03;1.30;;;5.10;99.90;;;;;;5047573;28;20102;-68
2023/03/04 07:23:53;;;;;;;12.30;1.17;;;5.10;99.90;;;;;;5048686;28;20040;-61
2023/03/04 07:26:19;;;;;;;7.27;0.90;;;5.20;99.90;;;;;;5044501;28;20020;-61
2023/03/04 07:28:45;;;;;;;3.88;0.95;;;5.20;99.90;;;;;;5051969;28;20041;-61
2023/03/04 07:31:19;;;;;;;0.97;0.60;;;5.30;99.90;;;;;;5050933;28;20066;-61
2023/03/04 07:33:45;;;;;;;2.10;0.70;;;5.30;99.90;;;;;;5052133;28;20109;-61
2023/03/04 07:36:13;;;;;;;3.07;0.93;;;5.30;99.90;;;;;;5051100;28;20120;-61
2023/03/04 07:38:42;;;;;;;3.17;0.35;;;5.40;99.90;;;;;;5052771;28;20051;-61
2023/03/04 07:41:07;;;;;;;0.80;0.68;;;5.50;99.90;;;;;;5027964;28;20037;-60
2023/03/04 07:43:33;;;;;;;1.03;0.50;;;5.50;99.90;;;;;;5047944;28;20100;-60
2023/03/04 07:46:00;;;;;;;4.83;1.00;;;5.50;99.90;;;;;;5049595;28;20025;-64
2023/03/04 07:48:27;;;;;;;5.25;0.40;;;5.50;99.90;;;;;;5048828;28;20043;-60
2023/03/04 07:51:03;;;;;;;3.85;1.23;;;5.50;99.90;;;;;;5045760;28;20174;-60
2023/03/04 07:53:29;;;;;;;;;;;5.40;99.90;;;;;;5031767;28;20044;-68
2023/03/04 07:55:55;;;;;;;2.58;0.22;;;5.50;99.90;;;;;;5049465;28;19966;-60
2023/03/04 07:58:21;;;;;;;5.43;0.80;;;5.50;99.90;;;;;;5041223;28;20025;-60
2023/03/04 08:00:46;;;;;;;3.67;0.87;;;5.60;99.90;;;;;;5055511;28;20037;-61
2023/03/04 08:03:12;;;;;;;2.87;0.60;;;5.70;99.90;;;;;;5046724;28;20127;-71
2023/03/04 08:05:40;;;;;;;2.90;0.83;;;5.80;99.90;;;;;;5047796;28;20039;-60
2023/03/04 08:08:06;;;;;;;4.13;0.70;;;5.80;99.90;;;;;;5049409;28;20075;-61
2023/03/04 08:10:33;;;;;;;4.50;0.70;;;6.00;99.90;;;;;;5048448;28;20362;-60
2023/03/04 08:12:58;;;;;;;3.10;0.30;;;6.10;99.90;;;;;;5045879;28;20033;-61
2023/03/04 08:15:26;;;;;;;3.77;0.90;;;6.10;99.90;;;;;;5044504;28;20091;-61
2023/03/04 08:17:52;;;;;;;0.70;0.35;;;6.00;99.90;;;;;;5049231;28;20447;-60
2023/03/04 08:20:18;;;;;;;1.48;0.47;;;6.10;99.90;;;;;;5053123;28;20401;-63
2023/03/04 08:22:43;;;;;;;3.10;0.40;;;6.10;99.90;;;;;;5048000;28;20029;-60
2023/03/04 08:25:10;;;;;;;4.53;0.80;;;6.30;99.90;;;;;;5052214;28;20029;-61
2023/03/04 08:27:36;;;;;;;2.63;0.52;;;6.40;99.90;;;;;;5057787;28;20028;-60
2023/03/04 08:30:03;;;;;;;0.32;0.30;;;6.50;99.90;;;;;;5054174;28;20056;-60
2023/03/04 08:32:29;;;;;;;0.08;0.08;;;6.80;99.90;;;;;;5054213;28;20330;-60
2023/03/04 08:34:55;;;;;;;7.83;0.97;;;6.80;99.90;;;;;;5049912;28;20021;-60
2023/03/04 08:37:22;;;;;;;5.28;0.30;;;6.80;99.90;;;;;;5052010;28;20068;-72
2023/03/04 08:39:47;;;;;;;1.27;0.50;;;6.70;99.90;;;;;;5051143;28;20110;-60
2023/03/04 08:42:13;;;;;;;6.63;1.27;;;6.60;99.90;;;;;;5054906;28;20057;-73
2023/03/04 08:44:38;;;;;;;2.20;0.60;;;6.60;99.90;;;;;;5060135;28;20028;-60
2023/03/04 08:47:08;;;;;;;3.87;0.87;;;6.50;99.90;;;;;;5047392;28;20378;-60
2023/03/04 08:49:33;;;;;;;6.72;0.93;;;6.60;99.90;;;;;;5051189;28;20026;-61
2023/03/04 08:51:59;;;;;;;3.83;0.50;;;6.50;99.90;;;;;;5050167;28;20032;-60
2023/03/04 08:54:24;;;;;;;5.90;0.83;;;6.50;99.90;;;;;;5048545;28;20024;-71
2023/03/04 08:56:50;;;;;;;8.73;0.70;;;6.60;99.90;;;;;;5045210;28;20028;-61
2023/03/04 08:59:16;;;;;;;3.00;1.00;;;6.60;99.90;;;;;;5054127;28;20035;-73
2023/03/04 09:01:41;;;;;;;1.10;0.60;;;6.60;99.90;;;;;;5040966;28;20059;-60
2023/03/04 09:04:07;;;;;;;5.00;1.13;;;6.60;99.90;;;;;;5057767;28;20033;-68
2023/03/04 09:06:33;;;;;;;3.30;1.10;;;6.60;99.90;;;;;;5047217;28;20021;-61
2023/03/04 09:08:59;;;;;;;2.37;1.03;;;6.70;99.90;;;;;;5051190;28;20044;-62
2023/03/04 09:11:24;;;;;;;0.20;0.20;;;6.90;99.90;;;;;;5059974;28;20039;-60
2023/03/04 09:13:50;;;;;;;5.67;0.57;;;6.90;99.90;;;;;;5062328;28;20299;-60
2023/03/04 09:16:16;;;;;;;1.80;0.67;;;6.90;99.90;;;;;;5062978;28;20021;-73
2023/03/04 09:18:42;;;;;;;0.50;0.50;;;7.00;99.90;;;;;;5047645;28;20052;-60
2023/03/04 09:21:08;;;;;;;3.63;0.70;;;7.00;99.90;;;;;;5053752;28;20103;-62
2023/03/04 09:23:35;;;;;;;1.77;1.10;;;7.10;99.90;;;;;;5051763;28;20029;-60
2023/03/04 09:26:11;;;;;;;0.38;0.38;;;7.10;99.90;;;;;;5058661;28;20032;-60
2023/03/04 09:28:37;;;;;;;5.00;0.50;;;6.90;99.90;;;;;;5053446;28;20052;-66
2023/03/04 09:31:11;;;;;;;5.17;0.77;;;6.80;99.90;;;;;;5067471;28;20427;-61
2023/03/04 09:33:37;;;;;;;2.28;0.43;;;6.80;99.90;;;;;;5048622;28;20948;-60
2023/03/04 09:36:03;;;;;;;1.00;0.80;;;6.80;99.90;;;;;;5056791;28;20037;-60
2023/03/04 09:38:28;;;;;;;5.80;0.80;;;7.00;99.90;;;;;;5056983;28;20033;-61
2023/03/04 09:40:55;;;;;;;2.80;0.53;;;7.10;99.90;;;;;;5054603;28;20411;-60
2023/03/04 09:43:28;;;;;;;5.95;0.80;;;7.30;99.90;;;;;;5061057;28;20028;-61
2023/03/04 09:45:57;;;;;;;1.02;0.47;;;7.40;99.90;;;;;;5060807;28;20037;-60
2023/03/04 09:48:26;;;;;;;4.93;0.98;;;7.40;99.90;;;;;;5064625;28;20032;-61
2023/03/04 09:51:11;;;;;;;2.72;0.82;;;7.40;99.90;;;;;;5056942;28;20066;-61
2023/03/04 09:54:04;;;;;;;2.22;0.68;;;7.40;99.90;;;;;;5057385;28;20143;-61
2023/03/04 09:56:32;;;;;;;2.78;0.57;;;7.20;99.90;;;;;;5052131;28;20087;-61
2023/03/04 09:59:39;;;;;;;12.02;1.10;;;7.10;99.90;;;;;;5053509;28;20039;-62
2023/03/04 10:02:34;;;;;;;6.45;0.70;;;7.10;99.90;;;;;;5047819;28;20479;-60
2023/03/04 10:05:04;;;;;;;3.78;0.73;;;7.10;99.90;;;;;;5047253;28;20411;-61
2023/03/04 10:07:37;;;;;;;1.95;0.30;;;7.10;99.90;;;;;;5059449;28;20037;-61
2023/03/04 10:10:29;;;;;;;3.03;0.60;;;7.10;99.90;;;;;;5057409;28;20024;-73
2023/03/04 10:12:57;;;;;;;0.43;0.35;;;7.10;99.90;;;;;;5054355;28;20025;-60
2023/03/04 10:15:35;;;;;;;2.40;0.57;;;7.10;99.90;;;;;;5051144;28;20068;-60
2023/03/04 10:18:33;;;;;;;0.52;0.40;;;6.90;99.90;;;;;;5046877;28;20025;-60
2023/03/04 10:21:01;;;;;;;6.72;1.00;;;6.80;99.90;;;;;;5032569;28;20033;-61
2023/03/04 10:23:29;;;;;;;3.55;0.90;;;6.60;99.90;;;;;;5061548;28;20126;-61
2023/03/04 10:25:58;;;;;;;3.45;0.52;;;6.60;99.90;;;;;;5056486;28;20025;-61
2023/03/04 10:28:28;;;;;;;1.98;0.80;;;6.80;99.90;;;;;;5054264;28;20446;-61
2023/03/04 10:31:05;;;;;;;1.50;0.70;;;6.80;99.90;;;;;;5058092;28;20322;-63
2023/03/04 10:33:34;;;;;;;3.88;1.08;;;7.10;99.90;;;;;;5054667;28;20029;-61
2023/03/04 10:36:20;;;;;;;4.57;1.02;;;7.20;99.90;;;;;;5052130;28;20031;-61
2023/03/04 10:38:46;;;;;;;3.92;1.10;;;7.40;99.90;;;;;;5047247;28;20031;-61
2023/03/04 10:41:31;;;;;;;4.40;1.00;;;7.60;99.90;;;;;;5054843;28;20020;-71
2023/03/04 10:44:08;;;;;;;6.40;0.82;;;7.70;99.90;;;;;;5049356;28;20427;-74
2023/03/04 10:46:38;;;;;;;0.38;0.32;;;7.70;99.90;;;;;;5048069;28;20077;-61
2023/03/04 10:49:04;;;;;;;1.15;0.43;;;7.50;99.90;;;;;;5051637;28;20036;-61
2023/03/04 10:51:30;;;;;;;1.07;0.90;;;7.40;99.90;;;;;;5053855;28;20407;-60
2023/03/04 10:53:59;;;;;;;1.43;0.30;;;7.20;99.90;;;;;;5055221;28;20024;-71
2023/03/04 10:56:58;;;;;;;0.45;0.20;;;6.80;99.90;;;;;;5053803;28;20021;-73
2023/03/04 10:59:31;;;;;;;0.70;0.40;;;6.50;99.90;;;;;;5052811;28;20289;-61
2023/03/04 11:01:59;;;;;;;3.28;0.88;;;6.40;99.90;;;;;;5051384;28;20052;-60
2023/03/04 11:04:26;;;;;;;3.13;0.47;;;6.40;99.90;;;;;;5041737;28;20021;-61
2023/03/04 11:06:53;;;;;;;2.08;0.50;;;6.30;99.90;;;;;;5054402;28;20041;-61
2023/03/04 11:09:27;;;;;;;2.78;0.70;;;6.30;99.90;;;;;;5052748;28;20029;-61
2023/03/04 11:12:00;;;;;;;5.47;1.08;;;6.40;99.90;;;;;;5054179;28;20041;-61
2023/03/04 11:14:48;;;;;;;0.95;0.57;;;6.40;99.90;;;;;;5042115;28;20032;-61
2023/03/04 11:17:17;;;;;;;0.20;0.20;;;6.40;99.90;;;;;;5049017;28;20033;-72
2023/03/04 11:19:47;;;;;;;3.05;0.95;;;6.50;99.90;;;;;;5052809;28;20120;-61
2023/03/04 11:22:18;;;;;;;14.88;0.77;;;6.90;99.90;;;;;;5049928;28;20424;-74
2023/03/04 11:25:00;;;;;;;1.75;0.95;;;7.20;99.90;;;;;;5050346;28;20371;-71
2023/03/04 11:27:37;;;;;;;4.80;0.90;;;7.30;99.90;;;;;;5049863;28;20051;-61
2023/03/04 11:30:35;;;;;;;4.85;0.88;;;7.30;99.90;;;;;;5048946;28;20068;-61
2023/03/04 11:33:14;;;;;;;4.53;1.35;;;7.50;99.90;;;;;;5049193;28;20128;-61
2023/03/04 11:36:19;;;;;;;8.63;1.35;;;7.30;99.90;;;;;;5048098;28;20030;-61
2023/03/04 11:38:48;;;;;;;1.15;0.90;;;7.20;99.90;;;;;;5000533;28;20095;-74
2023/03/04 11:41:21;;;;;;;1.73;1.20;;;6.90;99.90;;;;;;5056605;28;20026;-61
2023/03/04 11:43:47;;;;;;;5.07;1.20;;;6.70;99.90;;;;;;5044737;28;20033;-61
2023/03/04 11:46:43;;;;;;;3.30;0.40;;;6.60;99.90;;;;;;5044047;28;20443;-73
2023/03/04 11:49:18;;;;;;;;;;;6.60;99.90;;;;;;5045144;28;20262;-60
2023/03/04 11:52:12;;;;;;;5.22;1.65;;;6.50;99.90;;;;;;5045296;28;20342;-61
2023/03/04 11:54:50;;;;;;;1.30;0.70;;;6.50;99.90;;;;;;5049967;28;20324;-61
2023/03/04 11:57:48;;;;;;;1.25;0.75;;;6.50;99.90;;;;;;5046510;28;20044;-72
2023/03/04 12:00:39;;;;;;;1.15;0.75;;;6.40;99.90;;;;;;5056451;28;20100;-61
2023/03/04 12:03:22;;;;;;;7.80;1.10;;;6.50;99.90;;;;;;5051004;28;20078;-61
2023/03/04 12:06:25;;;;;;;5.72;1.02;;;6.60;99.90;;;;;;5052675;28;20099;-60
2023/03/04 12:09:00;;;;;;;7.57;1.25;;;6.70;99.90;;;;;;5051244;28;20025;-60
2023/03/04 12:11:48;;;;;;;4.35;1.33;;;6.70;99.90;;;;;;5051470;28;20431;-61
2023/03/04 12:14:24;;;;;;;11.15;1.35;;;6.80;99.90;;;;;;5039848;28;20021;-72
2023/03/04 12:17:05;;;;;;;9.68;2.25;;;6.80;99.90;;;;;;5048897;28;20322;-60
2023/03/04 12:19:52;;;;;;;7.57;0.88;;;7.00;99.90;;;;;;5043166;28;20045;-61
2023/03/04 12:22:31;;;;;;;6.75;2.10;;;7.00;99.90;;;;;;5030804;28;20289;-60
2023/03/04 12:25:18;;;;;;;17.55;1.85;;;7.10;99.90;;;;;;5042348;28;20451;-61
2023/03/04 12:28:05;;;;;;;5.32;1.20;;;7.30;99.90;;;;;;5041984;28;20468;-61
2023/03/04 12:30:43;;;;;;;4.85;1.40;;;7.40;99.90;;;;;;5053252;28;20037;-61
2023/03/04 12:33:52;;;;;;;15.02;2.35;;;7.60;99.90;;;;;;5042375;28;20429;-62
2023/03/04 12:36:31;;;;;;;5.28;0.82;;;7.60;99.90;;;;;;5057230;28;20061;-69
2023/03/04 12:39:20;;;;;;;4.80;1.58;;;7.20;99.90;;;;;;5047587;28;20032;-73
2023/03/04 12:42:26;;;;;;;0.52;0.32;;;6.80;99.90;;;;;;5042674;28;20108;-61
2023/03/04 12:45:16;;;;;;;0.68;0.52;;;6.60;99.90;;;;;;5052025;28;20017;-61
2023/03/04 12:48:04;;;;;;;3.03;1.13;;;6.50;99.90;;;;;;5051542;28;20036;-61
2023/03/04 12:50:36;;;;;;;2.28;0.63;;;6.50;99.90;;;;;;5037408;28;20491;-61
2023/03/04 12:53:34;;;;;;;0.32;0.32;;;6.50;99.90;;;;;;5049370;28;20087;-61
2023/03/04 12:56:01;;;;;;;6.13;1.27;;;6.60;99.90;;;;;;4999901;28;20052;-61
2023/03/04 12:58:31;;;;;;;4.50;1.85;;;6.60;99.90;;;;;;5044722;28;20446;-61
2023/03/04 13:01:11;;;;;;;0.47;0.47;;;6.70;99.90;;;;;;5054806;28;20029;-61
2023/03/04 13:03:46;;;;;;;9.45;0.95;;;6.70;99.90;;;;;;5045569;28;20107;-61
2023/03/04 13:06:31;;;;;;;6.53;0.90;;;6.80;99.90;;;;;;5049992;28;20051;-73
2023/03/04 13:09:23;;;;;;;5.65;0.80;;;6.80;99.90;;;;;;5053106;28;20479;-61